sensor_id;sensor_type;location;lat;lon;timestamp;P1;durP1;ratioP1;P2;durP2;ratioP2
48317;SDS011;34127;47.412;9.730;2023-08-12T00:00:54;7.15;;;2.80;;
48317;SDS011;34127;47.412;9.730;2023-08-12T00:03:20;7.15;;;2.97;;
48317;SDS011;34127;47.412;9.730;2023-08-12T00:05:46;5.85;;;3.20;;
48317;SDS011;34127;47.412;9.730;2023-08-12T00:08:12;7.43;;;2.85;;
48317;SDS011;34127;47.412;9.730;2023-08-12T00:10:38;7.63;;;3.00;;
48317;SDS011;34127;47.412;9.730;2023-08-12T00:13:05;5.90;;;3.15;;
48317;SDS011;34127;47.412;9.730;2023-08-12T00:15:31;6.28;;;3.10;;
48317;SDS011;34127;47.412;9.730;2023-08-12T00:17:57;8.45;;;3.70;;
48317;SDS011;34127;47.412;9.730;2023-08-12T00:20:23;4.80;;;3.35;;
48317;SDS011;34127;47.412;9.730;2023-08-12T00:22:49;6.78;;;3.35;;
48317;SDS011;34127;47.412;9.730;2023-08-12T00:25:15;5.50;;;3.53;;
48317;SDS011;34127;47.412;9.730;2023-08-12T00:27:43;6.15;;;3.47;;
48317;SDS011;34127;47.412;9.730;2023-08-12T00:30:09;4.80;;;3.22;;
48317;SDS011;34127;47.412;9.730;2023-08-12T00:32:35;4.88;;;3.30;;
48317;SDS011;34127;47.412;9.730;2023-08-12T00:35:01;5.93;;;3.35;;
48317;SDS011;34127;47.412;9.730;2023-08-12T00:37:28;5.68;;;3.50;;
48317;SDS011;34127;47.412;9.730;2023-08-12T00:39:54;6.53;;;3.85;;
48317;SDS011;34127;47.412;9.730;2023-08-12T00:42:20;5.28;;;3.75;;
48317;SDS011;34127;47.412;9.730;2023-08-12T00:44:46;6.43;;;3.33;;
48317;SDS011;34127;47.412;9.730;2023-08-12T00:47:13;5.60;;;3.47;;
48317;SDS011;34127;47.412;9.730;2023-08-12T00:49:39;6.07;;;3.60;;
48317;SDS011;34127;47.412;9.730;2023-08-12T00:52:06;5.47;;;3.17;;
48317;SDS011;34127;47.412;9.730;2023-08-12T00:54:32;5.88;;;3.92;;
48317;SDS011;34127;47.412;9.730;2023-08-12T00:56:58;5.07;;;3.45;;
48317;SDS011;34127;47.412;9.730;2023-08-12T00:59:24;6.38;;;3.58;;
48317;SDS011;34127;47.412;9.730;2023-08-12T01:01:51;5.03;;;3.58;;
48317;SDS011;34127;47.412;9.730;2023-08-12T01:04:17;5.45;;;3.78;;
48317;SDS011;34127;47.412;9.730;2023-08-12T01:06:43;6.05;;;3.40;;
48317;SDS011;34127;47.412;9.730;2023-08-12T01:09:10;7.28;;;3.60;;
48317;SDS011;34127;47.412;9.730;2023-08-12T01:11:57;6.25;;;3.92;;
48317;SDS011;34127;47.412;9.730;2023-08-12T01:17:13;5.32;;;3.47;;
48317;SDS011;34127;47.412;9.730;2023-08-12T01:19:40;6.90;;;3.60;;
48317;SDS011;34127;47.412;9.730;2023-08-12T01:22:10;9.57;;;3.80;;
48317;SDS011;34127;47.412;9.730;2023-08-12T01:24:37;5.22;;;3.30;;
48317;SDS011;34127;47.412;9.730;2023-08-12T01:27:04;5.93;;;3.47;;
48317;SDS011;34127;47.412;9.730;2023-08-12T01:29:31;6.47;;;3.40;;
48317;SDS011;34127;47.412;9.730;2023-08-12T01:31:58;6.90;;;3.35;;
48317;SDS011;34127;47.412;9.730;2023-08-12T01:36:54;5.05;;;2.80;;
48317;SDS011;34127;47.412;9.730;2023-08-12T01:39:21;4.35;;;3.00;;
48317;SDS011;34127;47.412;9.730;2023-08-12T01:41:48;4.75;;;2.97;;
48317;SDS011;34127;47.412;9.730;2023-08-12T01:44:15;7.90;;;3.25;;
48317;SDS011;34127;47.412;9.730;2023-08-12T01:46:43;5.50;;;3.30;;
48317;SDS011;34127;47.412;9.730;2023-08-12T01:49:09;6.65;;;3.42;;
48317;SDS011;34127;47.412;9.730;2023-08-12T01:51:35;6.85;;;3.30;;
48317;SDS011;34127;47.412;9.730;2023-08-12T01:54:01;6.80;;;3.25;;
48317;SDS011;34127;47.412;9.730;2023-08-12T01:56:28;6.07;;;2.92;;
48317;SDS011;34127;47.412;9.730;2023-08-12T01:58:54;4.65;;;3.25;;
48317;SDS011;34127;47.412;9.730;2023-08-12T02:01:20;5.57;;;3.30;;
48317;SDS011;34127;47.412;9.730;2023-08-12T02:03:46;4.40;;;3.00;;
48317;SDS011;34127;47.412;9.730;2023-08-12T02:06:12;6.03;;;3.47;;
48317;SDS011;34127;47.412;9.730;2023-08-12T02:08:39;5.85;;;2.92;;
48317;SDS011;34127;47.412;9.730;2023-08-12T02:11:05;4.82;;;3.00;;
48317;SDS011;34127;47.412;9.730;2023-08-12T02:13:31;7.07;;;3.17;;
48317;SDS011;34127;47.412;9.730;2023-08-12T02:15:57;5.10;;;3.38;;
48317;SDS011;34127;47.412;9.730;2023-08-12T02:18:23;7.00;;;3.53;;
48317;SDS011;34127;47.412;9.730;2023-08-12T02:20:49;4.70;;;3.15;;
48317;SDS011;34127;47.412;9.730;2023-08-12T02:23:15;5.70;;;3.45;;
48317;SDS011;34127;47.412;9.730;2023-08-12T02:25:42;4.60;;;3.13;;
48317;SDS011;34127;47.412;9.730;2023-08-12T02:28:09;4.47;;;3.25;;
48317;SDS011;34127;47.412;9.730;2023-08-12T02:30:35;5.68;;;3.47;;
48317;SDS011;34127;47.412;9.730;2023-08-12T02:33:01;8.40;;;3.38;;
48317;SDS011;34127;47.412;9.730;2023-08-12T02:35:27;4.95;;;3.45;;
48317;SDS011;34127;47.412;9.730;2023-08-12T02:37:53;6.55;;;3.35;;
48317;SDS011;34127;47.412;9.730;2023-08-12T02:40:20;6.22;;;3.65;;
48317;SDS011;34127;47.412;9.730;2023-08-12T02:42:46;6.72;;;3.50;;
48317;SDS011;34127;47.412;9.730;2023-08-12T02:45:12;6.53;;;3.17;;
48317;SDS011;34127;47.412;9.730;2023-08-12T02:47:38;4.95;;;3.22;;
48317;SDS011;34127;47.412;9.730;2023-08-12T02:50:04;5.38;;;3.47;;
48317;SDS011;34127;47.412;9.730;2023-08-12T02:52:31;5.47;;;3.35;;
48317;SDS011;34127;47.412;9.730;2023-08-12T02:54:57;9.40;;;3.42;;
48317;SDS011;34127;47.412;9.730;2023-08-12T02:57:23;7.00;;;3.10;;
48317;SDS011;34127;47.412;9.730;2023-08-12T02:59:49;6.22;;;3.90;;
48317;SDS011;34127;47.412;9.730;2023-08-12T03:02:15;6.18;;;3.15;;
48317;SDS011;34127;47.412;9.730;2023-08-12T03:04:41;6.22;;;3.22;;
48317;SDS011;34127;47.412;9.730;2023-08-12T03:07:07;5.53;;;3.30;;
48317;SDS011;34127;47.412;9.730;2023-08-12T03:09:34;4.70;;;3.05;;
48317;SDS011;34127;47.412;9.730;2023-08-12T03:12:00;6.72;;;3.47;;
48317;SDS011;34127;47.412;9.730;2023-08-12T03:14:28;6.10;;;3.65;;
48317;SDS011;34127;47.412;9.730;2023-08-12T03:16:55;5.50;;;3.22;;
48317;SDS011;34127;47.412;9.730;2023-08-12T03:19:21;4.90;;;3.03;;
48317;SDS011;34127;47.412;9.730;2023-08-12T03:21:47;5.97;;;3.28;;
48317;SDS011;34127;47.412;9.730;2023-08-12T03:24:13;5.85;;;3.28;;
48317;SDS011;34127;47.412;9.730;2023-08-12T03:26:40;5.30;;;3.03;;
48317;SDS011;34127;47.412;9.730;2023-08-12T03:29:06;5.72;;;3.20;;
48317;SDS011;34127;47.412;9.730;2023-08-12T03:31:32;4.90;;;2.95;;
48317;SDS011;34127;47.412;9.730;2023-08-12T03:33:58;6.22;;;3.13;;
48317;SDS011;34127;47.412;9.730;2023-08-12T03:36:24;4.82;;;3.15;;
48317;SDS011;34127;47.412;9.730;2023-08-12T03:38:50;5.50;;;3.35;;
48317;SDS011;34127;47.412;9.730;2023-08-12T03:41:17;5.78;;;2.88;;
48317;SDS011;34127;47.412;9.730;2023-08-12T03:43:43;5.35;;;3.10;;
48317;SDS011;34127;47.412;9.730;2023-08-12T03:46:09;5.68;;;3.35;;
48317;SDS011;34127;47.412;9.730;2023-08-12T03:48:35;5.05;;;3.10;;
48317;SDS011;34127;47.412;9.730;2023-08-12T03:51:01;5.07;;;3.28;;
48317;SDS011;34127;47.412;9.730;2023-08-12T03:53:27;5.20;;;3.40;;
48317;SDS011;34127;47.412;9.730;2023-08-12T03:55:54;4.47;;;3.10;;
48317;SDS011;34127;47.412;9.730;2023-08-12T03:58:20;6.68;;;3.53;;
48317;SDS011;34127;47.412;9.730;2023-08-12T04:00:46;4.28;;;3.13;;
48317;SDS011;34127;47.412;9.730;2023-08-12T04:03:13;5.50;;;3.22;;
48317;SDS011;34127;47.412;9.730;2023-08-12T04:05:46;4.55;;;3.35;;
48317;SDS011;34127;47.412;9.730;2023-08-12T04:08:13;6.20;;;3.35;;
48317;SDS011;34127;47.412;9.730;2023-08-12T04:10:40;5.57;;;3.60;;
48317;SDS011;34127;47.412;9.730;2023-08-12T04:13:06;4.50;;;3.20;;
48317;SDS011;34127;47.412;9.730;2023-08-12T04:15:32;5.18;;;3.15;;
48317;SDS011;34127;47.412;9.730;2023-08-12T04:17:59;4.05;;;2.80;;
48317;SDS011;34127;47.412;9.730;2023-08-12T04:20:25;6.93;;;2.97;;
48317;SDS011;34127;47.412;9.730;2023-08-12T04:22:51;4.78;;;3.13;;
48317;SDS011;34127;47.412;9.730;2023-08-12T04:25:17;5.97;;;2.92;;
48317;SDS011;34127;47.412;9.730;2023-08-12T04:27:44;6.07;;;3.30;;
48317;SDS011;34127;47.412;9.730;2023-08-12T04:30:12;6.22;;;3.13;;
48317;SDS011;34127;47.412;9.730;2023-08-12T04:32:39;4.75;;;3.15;;
48317;SDS011;34127;47.412;9.730;2023-08-12T04:35:05;6.18;;;3.53;;
48317;SDS011;34127;47.412;9.730;2023-08-12T04:37:31;5.53;;;3.03;;
48317;SDS011;34127;47.412;9.730;2023-08-12T04:39:58;5.40;;;3.30;;
48317;SDS011;34127;47.412;9.730;2023-08-12T04:42:24;4.97;;;3.10;;
48317;SDS011;34127;47.412;9.730;2023-08-12T04:44:50;8.65;;;3.40;;
48317;SDS011;34127;47.412;9.730;2023-08-12T04:47:16;5.32;;;3.53;;
48317;SDS011;34127;47.412;9.730;2023-08-12T04:49:43;4.82;;;3.00;;
48317;SDS011;34127;47.412;9.730;2023-08-12T04:52:09;5.75;;;3.25;;
48317;SDS011;34127;47.412;9.730;2023-08-12T04:54:36;6.65;;;3.75;;
48317;SDS011;34127;47.412;9.730;2023-08-12T04:57:02;4.78;;;3.08;;
48317;SDS011;34127;47.412;9.730;2023-08-12T04:59:28;4.85;;;3.20;;
48317;SDS011;34127;47.412;9.730;2023-08-12T05:01:54;7.90;;;4.10;;
48317;SDS011;34127;47.412;9.730;2023-08-12T05:04:20;7.80;;;3.60;;
48317;SDS011;34127;47.412;9.730;2023-08-12T05:06:47;7.80;;;3.50;;
48317;SDS011;34127;47.412;9.730;2023-08-12T05:09:13;5.82;;;3.47;;
48317;SDS011;34127;47.412;9.730;2023-08-12T05:11:40;6.22;;;3.92;;
48317;SDS011;34127;47.412;9.730;2023-08-12T05:14:06;6.53;;;3.75;;
48317;SDS011;34127;47.412;9.730;2023-08-12T05:16:33;6.00;;;3.33;;
48317;SDS011;34127;47.412;9.730;2023-08-12T05:18:59;5.93;;;3.45;;
48317;SDS011;34127;47.412;9.730;2023-08-12T05:21:26;5.25;;;3.58;;
48317;SDS011;34127;47.412;9.730;2023-08-12T05:23:52;5.53;;;3.60;;
48317;SDS011;34127;47.412;9.730;2023-08-12T05:26:18;8.18;;;3.97;;
48317;SDS011;34127;47.412;9.730;2023-08-12T05:28:46;7.57;;;3.25;;
48317;SDS011;34127;47.412;9.730;2023-08-12T05:31:12;5.78;;;3.28;;
48317;SDS011;34127;47.412;9.730;2023-08-12T05:33:38;7.97;;;3.25;;
48317;SDS011;34127;47.412;9.730;2023-08-12T05:36:04;6.32;;;3.45;;
48317;SDS011;34127;47.412;9.730;2023-08-12T05:38:30;4.70;;;3.40;;
48317;SDS011;34127;47.412;9.730;2023-08-12T05:40:56;7.95;;;4.10;;
48317;SDS011;34127;47.412;9.730;2023-08-12T05:43:23;7.03;;;3.28;;
48317;SDS011;34127;47.412;9.730;2023-08-12T05:45:49;6.65;;;3.25;;
48317;SDS011;34127;47.412;9.730;2023-08-12T05:48:15;5.38;;;3.60;;
48317;SDS011;34127;47.412;9.730;2023-08-12T05:50:42;6.45;;;3.28;;
48317;SDS011;34127;47.412;9.730;2023-08-12T05:53:09;5.13;;;2.97;;
48317;SDS011;34127;47.412;9.730;2023-08-12T05:55:35;5.88;;;3.17;;
48317;SDS011;34127;47.412;9.730;2023-08-12T05:58:01;8.25;;;3.15;;
48317;SDS011;34127;47.412;9.730;2023-08-12T06:00:27;5.35;;;3.10;;
48317;SDS011;34127;47.412;9.730;2023-08-12T06:02:54;7.32;;;3.10;;
48317;SDS011;34127;47.412;9.730;2023-08-12T06:05:20;8.65;;;3.35;;
48317;SDS011;34127;47.412;9.730;2023-08-12T06:07:46;6.07;;;3.13;;
48317;SDS011;34127;47.412;9.730;2023-08-12T06:10:12;7.38;;;3.40;;
48317;SDS011;34127;47.412;9.730;2023-08-12T06:12:38;9.38;;;3.50;;
48317;SDS011;34127;47.412;9.730;2023-08-12T06:15:05;5.82;;;3.97;;
48317;SDS011;34127;47.412;9.730;2023-08-12T06:17:31;6.70;;;3.25;;
48317;SDS011;34127;47.412;9.730;2023-08-12T06:19:57;5.55;;;3.55;;
48317;SDS011;34127;47.412;9.730;2023-08-12T06:22:24;6.47;;;3.58;;
48317;SDS011;34127;47.412;9.730;2023-08-12T06:24:50;6.25;;;3.75;;
48317;SDS011;34127;47.412;9.730;2023-08-12T06:27:16;7.88;;;3.88;;
48317;SDS011;34127;47.412;9.730;2023-08-12T06:29:45;5.85;;;4.20;;
48317;SDS011;34127;47.412;9.730;2023-08-12T06:32:11;6.50;;;4.00;;
48317;SDS011;34127;47.412;9.730;2023-08-12T06:34:38;7.60;;;4.03;;
48317;SDS011;34127;47.412;9.730;2023-08-12T06:37:05;6.43;;;3.80;;
48317;SDS011;34127;47.412;9.730;2023-08-12T06:39:31;6.32;;;3.55;;
48317;SDS011;34127;47.412;9.730;2023-08-12T06:41:57;7.35;;;4.00;;
48317;SDS011;34127;47.412;9.730;2023-08-12T06:44:24;5.85;;;3.50;;
48317;SDS011;34127;47.412;9.730;2023-08-12T06:46:50;7.40;;;3.47;;
48317;SDS011;34127;47.412;9.730;2023-08-12T06:49:17;5.13;;;3.30;;
48317;SDS011;34127;47.412;9.730;2023-08-12T06:51:43;5.15;;;3.40;;
48317;SDS011;34127;47.412;9.730;2023-08-12T06:54:10;5.60;;;3.55;;
48317;SDS011;34127;47.412;9.730;2023-08-12T06:56:36;5.35;;;3.30;;
48317;SDS011;34127;47.412;9.730;2023-08-12T06:59:02;5.90;;;3.13;;
48317;SDS011;34127;47.412;9.730;2023-08-12T07:01:28;5.97;;;3.28;;
48317;SDS011;34127;47.412;9.730;2023-08-12T07:03:54;5.60;;;3.60;;
48317;SDS011;34127;47.412;9.730;2023-08-12T07:06:21;6.82;;;3.10;;
48317;SDS011;34127;47.412;9.730;2023-08-12T07:08:47;5.00;;;3.30;;
48317;SDS011;34127;47.412;9.730;2023-08-12T07:11:14;3.92;;;2.80;;
48317;SDS011;34127;47.412;9.730;2023-08-12T07:13:40;5.65;;;3.20;;
48317;SDS011;34127;47.412;9.730;2023-08-12T07:16:07;4.13;;;2.95;;
48317;SDS011;34127;47.412;9.730;2023-08-12T07:18:34;5.15;;;3.28;;
48317;SDS011;34127;47.412;9.730;2023-08-12T07:21:00;6.68;;;3.50;;
48317;SDS011;34127;47.412;9.730;2023-08-12T07:23:26;3.97;;;2.92;;
48317;SDS011;34127;47.412;9.730;2023-08-12T07:25:52;6.63;;;3.05;;
48317;SDS011;34127;47.412;9.730;2023-08-12T07:28:18;5.15;;;3.30;;
48317;SDS011;34127;47.412;9.730;2023-08-12T07:30:45;6.10;;;3.10;;
48317;SDS011;34127;47.412;9.730;2023-08-12T07:33:11;5.38;;;3.40;;
48317;SDS011;34127;47.412;9.730;2023-08-12T07:35:37;5.53;;;3.40;;
48317;SDS011;34127;47.412;9.730;2023-08-12T07:38:03;6.18;;;3.40;;
48317;SDS011;34127;47.412;9.730;2023-08-12T07:40:29;7.43;;;3.10;;
48317;SDS011;34127;47.412;9.730;2023-08-12T07:42:56;7.07;;;3.10;;
48317;SDS011;34127;47.412;9.730;2023-08-12T07:45:22;4.75;;;2.85;;
48317;SDS011;34127;47.412;9.730;2023-08-12T07:47:50;6.03;;;3.25;;
48317;SDS011;34127;47.412;9.730;2023-08-12T07:50:17;4.97;;;3.20;;
48317;SDS011;34127;47.412;9.730;2023-08-12T07:52:43;7.03;;;3.40;;
48317;SDS011;34127;47.412;9.730;2023-08-12T07:55:10;5.90;;;3.15;;
48317;SDS011;34127;47.412;9.730;2023-08-12T07:57:37;5.03;;;3.28;;
48317;SDS011;34127;47.412;9.730;2023-08-12T08:00:03;6.80;;;3.95;;
48317;SDS011;34127;47.412;9.730;2023-08-12T08:02:30;5.90;;;3.17;;
48317;SDS011;34127;47.412;9.730;2023-08-12T08:04:56;5.43;;;3.35;;
48317;SDS011;34127;47.412;9.730;2023-08-12T08:07:22;6.63;;;3.92;;
48317;SDS011;34127;47.412;9.730;2023-08-12T08:09:48;5.50;;;3.67;;
48317;SDS011;34127;47.412;9.730;2023-08-12T08:12:16;7.72;;;3.70;;
48317;SDS011;34127;47.412;9.730;2023-08-12T08:14:42;4.70;;;3.50;;
48317;SDS011;34127;47.412;9.730;2023-08-12T08:17:09;5.05;;;3.38;;
48317;SDS011;34127;47.412;9.730;2023-08-12T08:19:35;5.30;;;3.42;;
48317;SDS011;34127;47.412;9.730;2023-08-12T08:22:01;6.55;;;3.60;;
48317;SDS011;34127;47.412;9.730;2023-08-12T08:24:28;5.13;;;3.42;;
48317;SDS011;34127;47.412;9.730;2023-08-12T08:26:55;7.03;;;3.50;;
48317;SDS011;34127;47.412;9.730;2023-08-12T08:29:21;5.25;;;3.38;;
48317;SDS011;34127;47.412;9.730;2023-08-12T08:31:48;5.22;;;3.50;;
48317;SDS011;34127;47.412;9.730;2023-08-12T08:34:14;5.35;;;3.10;;
48317;SDS011;34127;47.412;9.730;2023-08-12T08:36:41;4.80;;;3.47;;
48317;SDS011;34127;47.412;9.730;2023-08-12T08:39:08;6.18;;;3.50;;
48317;SDS011;34127;47.412;9.730;2023-08-12T08:41:36;5.28;;;3.78;;
48317;SDS011;34127;47.412;9.730;2023-08-12T08:44:03;6.30;;;4.03;;
48317;SDS011;34127;47.412;9.730;2023-08-12T08:46:32;6.95;;;3.70;;
48317;SDS011;34127;47.412;9.730;2023-08-12T08:48:59;6.50;;;3.85;;
48317;SDS011;34127;47.412;9.730;2023-08-12T08:51:25;7.07;;;3.60;;
48317;SDS011;34127;47.412;9.730;2023-08-12T08:53:53;5.78;;;3.78;;
48317;SDS011;34127;47.412;9.730;2023-08-12T08:56:20;6.00;;;3.70;;
48317;SDS011;34127;47.412;9.730;2023-08-12T08:58:47;6.00;;;3.88;;
48317;SDS011;34127;47.412;9.730;2023-08-12T09:01:13;6.22;;;3.78;;
48317;SDS011;34127;47.412;9.730;2023-08-12T09:03:40;7.55;;;3.97;;
48317;SDS011;34127;47.412;9.730;2023-08-12T09:06:08;5.65;;;4.07;;
48317;SDS011;34127;47.412;9.730;2023-08-12T09:08:34;6.07;;;3.88;;
48317;SDS011;34127;47.412;9.730;2023-08-12T09:11:01;7.00;;;3.90;;
48317;SDS011;34127;47.412;9.730;2023-08-12T09:13:28;10.50;;;4.00;;
48317;SDS011;34127;47.412;9.730;2023-08-12T09:15:54;5.25;;;3.53;;
48317;SDS011;34127;47.412;9.730;2023-08-12T09:18:20;6.20;;;4.05;;
48317;SDS011;34127;47.412;9.730;2023-08-12T09:20:50;6.32;;;3.67;;
48317;SDS011;34127;47.412;9.730;2023-08-12T09:23:16;5.90;;;4.03;;
48317;SDS011;34127;47.412;9.730;2023-08-12T09:25:43;6.15;;;4.05;;
48317;SDS011;34127;47.412;9.730;2023-08-12T09:28:10;5.40;;;4.20;;
48317;SDS011;34127;47.412;9.730;2023-08-12T09:30:37;8.52;;;4.30;;
48317;SDS011;34127;47.412;9.730;2023-08-12T09:33:04;7.30;;;4.10;;
48317;SDS011;34127;47.412;9.730;2023-08-12T09:35:39;6.05;;;3.92;;
48317;SDS011;34127;47.412;9.730;2023-08-12T09:38:06;7.45;;;4.07;;
48317;SDS011;34127;47.412;9.730;2023-08-12T09:40:33;8.98;;;4.40;;
48317;SDS011;34127;47.412;9.730;2023-08-12T09:42:59;6.57;;;3.78;;
48317;SDS011;34127;47.412;9.730;2023-08-12T09:45:26;5.43;;;3.78;;
48317;SDS011;34127;47.412;9.730;2023-08-12T09:47:52;6.40;;;3.90;;
48317;SDS011;34127;47.412;9.730;2023-08-12T09:50:23;6.70;;;3.40;;
48317;SDS011;34127;47.412;9.730;2023-08-12T09:52:50;5.07;;;3.80;;
48317;SDS011;34127;47.412;9.730;2023-08-12T09:55:17;5.78;;;3.75;;
48317;SDS011;34127;47.412;9.730;2023-08-12T09:57:44;6.97;;;4.18;;
48317;SDS011;34127;47.412;9.730;2023-08-12T10:00:10;7.40;;;4.20;;
48317;SDS011;34127;47.412;9.730;2023-08-12T10:02:41;6.25;;;3.90;;
48317;SDS011;34127;47.412;9.730;2023-08-12T10:05:08;6.35;;;3.67;;
48317;SDS011;34127;47.412;9.730;2023-08-12T10:07:35;6.53;;;4.63;;
48317;SDS011;34127;47.412;9.730;2023-08-12T10:10:02;5.60;;;3.97;;
48317;SDS011;34127;47.412;9.730;2023-08-12T10:12:28;6.43;;;3.88;;
48317;SDS011;34127;47.412;9.730;2023-08-12T10:14:55;7.07;;;3.90;;
48317;SDS011;34127;47.412;9.730;2023-08-12T10:17:21;6.40;;;4.05;;
48317;SDS011;34127;47.412;9.730;2023-08-12T10:19:55;6.32;;;4.05;;
48317;SDS011;34127;47.412;9.730;2023-08-12T10:22:21;6.38;;;4.20;;
48317;SDS011;34127;47.412;9.730;2023-08-12T10:24:47;6.40;;;3.92;;
48317;SDS011;34127;47.412;9.730;2023-08-12T10:27:15;6.07;;;3.90;;
48317;SDS011;34127;47.412;9.730;2023-08-12T10:29:46;5.78;;;4.28;;
48317;SDS011;34127;47.412;9.730;2023-08-12T10:32:13;8.48;;;4.43;;
48317;SDS011;34127;47.412;9.730;2023-08-12T10:34:39;7.90;;;4.22;;
48317;SDS011;34127;47.412;9.730;2023-08-12T10:37:09;6.95;;;4.47;;
48317;SDS011;34127;47.412;9.730;2023-08-12T10:39:38;8.60;;;4.78;;
48317;SDS011;34127;47.412;9.730;2023-08-12T10:42:05;6.50;;;4.15;;
48317;SDS011;34127;47.412;9.730;2023-08-12T10:44:38;6.55;;;4.50;;
48317;SDS011;34127;47.412;9.730;2023-08-12T10:47:09;6.97;;;4.78;;
48317;SDS011;34127;47.412;9.730;2023-08-12T10:49:43;6.53;;;3.95;;
48317;SDS011;34127;47.412;9.730;2023-08-12T10:52:25;6.30;;;4.15;;
48317;SDS011;34127;47.412;9.730;2023-08-12T10:54:53;6.90;;;4.97;;
48317;SDS011;34127;47.412;9.730;2023-08-12T10:57:34;8.93;;;4.40;;
48317;SDS011;34127;47.412;9.730;2023-08-12T11:00:03;6.18;;;4.30;;
48317;SDS011;34127;47.412;9.730;2023-08-12T11:02:33;5.50;;;3.95;;
48317;SDS011;34127;47.412;9.730;2023-08-12T11:07:28;7.55;;;4.22;;
48317;SDS011;34127;47.412;9.730;2023-08-12T11:09:59;6.57;;;4.25;;
48317;SDS011;34127;47.412;9.730;2023-08-12T11:12:35;7.75;;;4.47;;
48317;SDS011;34127;47.412;9.730;2023-08-12T11:15:02;5.93;;;3.90;;
48317;SDS011;34127;47.412;9.730;2023-08-12T11:17:29;6.68;;;4.00;;
48317;SDS011;34127;47.412;9.730;2023-08-12T11:19:59;5.43;;;3.60;;
48317;SDS011;34127;47.412;9.730;2023-08-12T11:22:25;5.40;;;3.97;;
48317;SDS011;34127;47.412;9.730;2023-08-12T11:24:52;4.82;;;3.55;;
48317;SDS011;34127;47.412;9.730;2023-08-12T11:27:19;8.48;;;3.90;;
48317;SDS011;34127;47.412;9.730;2023-08-12T11:29:45;5.65;;;3.90;;
48317;SDS011;34127;47.412;9.730;2023-08-12T11:32:11;5.32;;;3.88;;
48317;SDS011;34127;47.412;9.730;2023-08-12T11:34:38;7.50;;;4.00;;
48317;SDS011;34127;47.412;9.730;2023-08-12T11:37:05;5.32;;;3.80;;
48317;SDS011;34127;47.412;9.730;2023-08-12T11:39:31;4.70;;;3.80;;
48317;SDS011;34127;47.412;9.730;2023-08-12T11:41:57;7.97;;;3.67;;
48317;SDS011;34127;47.412;9.730;2023-08-12T11:44:24;4.72;;;3.33;;
48317;SDS011;34127;47.412;9.730;2023-08-12T11:46:52;5.55;;;4.05;;
48317;SDS011;34127;47.412;9.730;2023-08-12T11:49:19;7.15;;;4.15;;
48317;SDS011;34127;47.412;9.730;2023-08-12T11:51:46;6.03;;;4.32;;
48317;SDS011;34127;47.412;9.730;2023-08-12T11:54:16;8.02;;;4.57;;
48317;SDS011;34127;47.412;9.730;2023-08-12T11:56:42;7.13;;;4.05;;
48317;SDS011;34127;47.412;9.730;2023-08-12T11:59:09;5.50;;;3.92;;
48317;SDS011;34127;47.412;9.730;2023-08-12T12:01:36;7.93;;;4.50;;
48317;SDS011;34127;47.412;9.730;2023-08-12T12:04:02;7.68;;;3.70;;
48317;SDS011;34127;47.412;9.730;2023-08-12T12:06:32;6.20;;;4.10;;
48317;SDS011;34127;47.412;9.730;2023-08-12T12:09:00;5.40;;;3.60;;
48317;SDS011;34127;47.412;9.730;2023-08-12T12:11:29;5.47;;;3.72;;
48317;SDS011;34127;47.412;9.730;2023-08-12T12:13:55;6.63;;;3.75;;
48317;SDS011;34127;47.412;9.730;2023-08-12T12:16:22;4.93;;;3.40;;
48317;SDS011;34127;47.412;9.730;2023-08-12T12:18:48;6.18;;;3.50;;
48317;SDS011;34127;47.412;9.730;2023-08-12T12:21:19;5.45;;;3.30;;
48317;SDS011;34127;47.412;9.730;2023-08-12T12:23:47;5.00;;;3.30;;
48317;SDS011;34127;47.412;9.730;2023-08-12T12:26:13;6.35;;;3.42;;
48317;SDS011;34127;47.412;9.730;2023-08-12T12:28:39;4.00;;;2.95;;
48317;SDS011;34127;47.412;9.730;2023-08-12T12:31:05;6.35;;;3.10;;
48317;SDS011;34127;47.412;9.730;2023-08-12T12:33:33;4.38;;;3.13;;
48317;SDS011;34127;47.412;9.730;2023-08-12T12:35:59;5.85;;;3.08;;
48317;SDS011;34127;47.412;9.730;2023-08-12T12:38:25;4.88;;;3.05;;
48317;SDS011;34127;47.412;9.730;2023-08-12T12:40:51;6.05;;;2.72;;
48317;SDS011;34127;47.412;9.730;2023-08-12T12:43:17;5.25;;;3.00;;
48317;SDS011;34127;47.412;9.730;2023-08-12T12:45:43;6.75;;;3.10;;
48317;SDS011;34127;47.412;9.730;2023-08-12T12:48:10;6.45;;;3.00;;
48317;SDS011;34127;47.412;9.730;2023-08-12T12:50:36;4.78;;;2.60;;
48317;SDS011;34127;47.412;9.730;2023-08-12T12:53:02;5.15;;;2.90;;
48317;SDS011;34127;47.412;9.730;2023-08-12T12:55:29;5.10;;;2.80;;
48317;SDS011;34127;47.412;9.730;2023-08-12T12:57:55;6.93;;;3.03;;
48317;SDS011;34127;47.412;9.730;2023-08-12T13:00:21;7.72;;;2.70;;
48317;SDS011;34127;47.412;9.730;2023-08-12T13:02:47;4.90;;;2.78;;
48317;SDS011;34127;47.412;9.730;2023-08-12T13:05:16;7.10;;;2.70;;
48317;SDS011;34127;47.412;9.730;2023-08-12T13:07:43;5.60;;;2.90;;
48317;SDS011;34127;47.412;9.730;2023-08-12T13:10:09;5.13;;;2.90;;
48317;SDS011;34127;47.412;9.730;2023-08-12T13:12:35;6.05;;;3.10;;
48317;SDS011;34127;47.412;9.730;2023-08-12T13:15:01;5.38;;;3.67;;
48317;SDS011;34127;47.412;9.730;2023-08-12T13:17:27;4.72;;;2.90;;
48317;SDS011;34127;47.412;9.730;2023-08-12T13:19:53;4.20;;;2.50;;
48317;SDS011;34127;47.412;9.730;2023-08-12T13:22:20;4.78;;;2.80;;
48317;SDS011;34127;47.412;9.730;2023-08-12T13:24:46;6.90;;;2.90;;
48317;SDS011;34127;47.412;9.730;2023-08-12T13:27:12;5.63;;;3.20;;
48317;SDS011;34127;47.412;9.730;2023-08-12T13:29:39;5.22;;;2.92;;
48317;SDS011;34127;47.412;9.730;2023-08-12T13:32:05;6.60;;;3.50;;
48317;SDS011;34127;47.412;9.730;2023-08-12T13:34:31;8.07;;;3.40;;
48317;SDS011;34127;47.412;9.730;2023-08-12T13:36:58;5.65;;;3.60;;
48317;SDS011;34127;47.412;9.730;2023-08-12T13:39:24;5.85;;;3.70;;
48317;SDS011;34127;47.412;9.730;2023-08-12T13:41:54;6.82;;;3.63;;
48317;SDS011;34127;47.412;9.730;2023-08-12T13:44:22;6.28;;;3.10;;
48317;SDS011;34127;47.412;9.730;2023-08-12T13:46:49;5.68;;;3.58;;
48317;SDS011;34127;47.412;9.730;2023-08-12T13:49:15;9.18;;;4.10;;
48317;SDS011;34127;47.412;9.730;2023-08-12T13:51:41;6.95;;;4.25;;
48317;SDS011;34127;47.412;9.730;2023-08-12T13:54:08;5.72;;;3.70;;
48317;SDS011;34127;47.412;9.730;2023-08-12T13:56:34;5.50;;;3.30;;
48317;SDS011;34127;47.412;9.730;2023-08-12T13:59:00;4.63;;;3.05;;
48317;SDS011;34127;47.412;9.730;2023-08-12T14:01:27;4.55;;;2.97;;
48317;SDS011;34127;47.412;9.730;2023-08-12T14:03:53;4.80;;;3.20;;
48317;SDS011;34127;47.412;9.730;2023-08-12T14:06:19;5.03;;;3.10;;
48317;SDS011;34127;47.412;9.730;2023-08-12T14:08:45;5.63;;;3.50;;
48317;SDS011;34127;47.412;9.730;2023-08-12T14:11:11;5.72;;;3.25;;
48317;SDS011;34127;47.412;9.730;2023-08-12T14:13:37;5.30;;;3.30;;
48317;SDS011;34127;47.412;9.730;2023-08-12T14:16:04;5.47;;;3.10;;
48317;SDS011;34127;47.412;9.730;2023-08-12T14:18:30;6.15;;;3.03;;
48317;SDS011;34127;47.412;9.730;2023-08-12T14:20:56;4.93;;;3.38;;
48317;SDS011;34127;47.412;9.730;2023-08-12T14:23:22;7.28;;;3.40;;
48317;SDS011;34127;47.412;9.730;2023-08-12T14:25:48;5.75;;;3.75;;
48317;SDS011;34127;47.412;9.730;2023-08-12T14:28:14;4.72;;;3.20;;
48317;SDS011;34127;47.412;9.730;2023-08-12T14:30:41;5.80;;;3.08;;
48317;SDS011;34127;47.412;9.730;2023-08-12T14:33:07;5.68;;;3.22;;
48317;SDS011;34127;47.412;9.730;2023-08-12T14:35:33;5.82;;;3.42;;
48317;SDS011;34127;47.412;9.730;2023-08-12T14:38:00;5.35;;;3.28;;
48317;SDS011;34127;47.412;9.730;2023-08-12T14:40:26;6.05;;;2.97;;
48317;SDS011;34127;47.412;9.730;2023-08-12T14:42:53;6.57;;;3.10;;
48317;SDS011;34127;47.412;9.730;2023-08-12T14:45:19;5.60;;;3.20;;
48317;SDS011;34127;47.412;9.730;2023-08-12T14:47:45;6.07;;;3.00;;
48317;SDS011;34127;47.412;9.730;2023-08-12T14:50:11;5.75;;;3.15;;
48317;SDS011;34127;47.412;9.730;2023-08-12T14:52:37;5.07;;;3.47;;